createdAt,value
2019-01-16T00:02:35.630Z,2.00
2019-01-16T00:05:36.721Z,1.90
2019-01-16T00:08:17.228Z,1.90
2019-01-16T00:11:06.677Z,1.80
2019-01-16T00:13:59.313Z,1.80
2019-01-16T00:16:50.880Z,1.80
2019-01-16T00:19:43.772Z,1.80
2019-01-16T00:22:47.927Z,1.80
2019-01-16T00:25:50.133Z,1.80
2019-01-16T00:28:38.847Z,1.80
2019-01-16T00:31:24.332Z,1.80
2019-01-16T00:34:03.438Z,1.80
2019-01-16T00:37:00.610Z,1.80
2019-01-16T00:40:08.687Z,1.80
2019-01-16T00:42:59.986Z,1.80
2019-01-16T00:46:05.455Z,1.80
2019-01-16T00:48:55.463Z,1.90
2019-01-16T00:51:51.711Z,1.90
2019-01-16T00:54:54.188Z,1.80
2019-01-16T00:57:43.319Z,1.80
2019-01-16T01:00:34.824Z,1.80
2019-01-16T01:03:31.621Z,1.80
2019-01-16T01:06:24.981Z,1.90
2019-01-16T01:09:09.128Z,1.80
2019-01-16T01:11:58.300Z,1.90
2019-01-16T01:14:47.810Z,1.90
2019-01-16T01:17:50.274Z,1.90
2019-01-16T01:20:52.530Z,1.90
2019-01-16T01:23:48.649Z,1.80
2019-01-16T01:26:51.060Z,1.80
2019-01-16T01:29:33.357Z,1.80
2019-01-16T01:32:19.351Z,1.70
2019-01-16T01:35:09.562Z,1.70
2019-01-16T01:38:03.017Z,1.60
2019-01-16T01:41:05.459Z,1.60
2019-01-16T01:43:55.871Z,1.60
2019-01-16T01:46:52.001Z,1.60
2019-01-16T01:49:57.468Z,1.50
2019-01-16T01:52:50.608Z,1.50
2019-01-16T01:55:39.620Z,1.60
2019-01-16T01:58:36.116Z,1.50
2019-01-16T02:01:29.240Z,1.50
2019-01-16T02:04:18.399Z,1.70
2019-01-16T02:07:17.759Z,1.70
2019-01-16T02:10:06.456Z,1.70
2019-01-16T02:12:56.912Z,1.70
2019-01-16T02:15:50.135Z,1.70
2019-01-16T02:18:47.484Z,1.70
2019-01-16T02:21:42.641Z,1.80
2019-01-16T02:24:31.648Z,1.70
2019-01-16T02:27:20.611Z,1.80
2019-01-16T02:30:14.048Z,1.90
2019-01-16T02:33:02.979Z,2.00
2019-01-16T02:35:57.334Z,1.80
2019-01-16T02:38:46.495Z,1.70
2019-01-16T02:41:39.498Z,1.60
2019-01-16T02:44:38.783Z,1.60
2019-01-16T02:47:32.145Z,1.50
2019-01-16T02:50:37.748Z,1.60
2019-01-16T02:53:34.140Z,1.50
2019-01-16T02:56:26.979Z,1.50
2019-01-16T02:59:29.244Z,1.40
2019-01-16T03:02:16.556Z,1.60
2019-01-16T03:05:08.302Z,1.60
2019-01-16T03:08:10.760Z,1.70
2019-01-16T03:11:03.734Z,1.80
2019-01-16T03:13:53.677Z,1.90
2019-01-16T03:17:02.287Z,1.90
2019-01-16T03:19:40.949Z,1.90
2019-01-16T03:22:39.945Z,1.90
2019-01-16T03:25:30.029Z,1.80
2019-01-16T03:28:13.662Z,1.70
2019-01-16T03:31:07.282Z,1.60
2019-01-16T03:33:56.345Z,1.60
2019-01-16T03:36:45.320Z,1.60
2019-01-16T03:39:38.502Z,1.60
2019-01-16T03:42:34.479Z,1.50
2019-01-16T03:45:28.612Z,1.50
2019-01-16T03:48:17.624Z,1.50
2019-01-16T03:51:07.772Z,1.60
2019-01-16T03:53:57.869Z,1.60
2019-01-16T03:56:51.269Z,1.50
2019-01-16T03:59:47.083Z,1.40
2019-01-16T04:02:28.189Z,1.50
2019-01-16T04:05:17.135Z,1.40
2019-01-16T04:08:19.670Z,1.30
2019-01-16T04:11:25.065Z,1.50
2019-01-16T04:14:21.310Z,1.70
2019-01-16T04:17:14.323Z,1.70
2019-01-16T04:20:13.619Z,1.50
2019-01-16T04:22:58.491Z,1.50
2019-01-16T04:25:54.488Z,1.50
2019-01-16T04:28:35.935Z,1.40
2019-01-16T04:31:30.272Z,1.30
2019-01-16T04:34:23.406Z,1.40
2019-01-16T04:37:29.680Z,1.50
2019-01-16T04:40:22.516Z,1.50
2019-01-16T04:43:01.382Z,1.60
2019-01-16T04:45:51.459Z,1.70
2019-01-16T04:48:33.216Z,1.50
2019-01-16T04:51:23.398Z,1.50
2019-01-16T04:54:16.242Z,1.60
2019-01-16T04:56:57.734Z,1.50
2019-01-16T04:59:47.169Z,1.40
2019-01-16T05:02:40.039Z,1.40
2019-01-16T05:05:38.286Z,1.40
2019-01-16T05:08:31.351Z,1.40
2019-01-16T05:11:20.164Z,1.40
2019-01-16T05:14:02.730Z,1.40
2019-01-16T05:16:47.659Z,1.50
2019-01-16T05:19:38.786Z,1.40
2019-01-16T05:22:24.786Z,1.50
2019-01-16T05:25:30.242Z,1.50
2019-01-16T05:28:19.444Z,1.40
2019-01-16T05:31:08.355Z,1.40
2019-01-16T05:33:57.052Z,1.60
2019-01-16T05:36:45.889Z,1.30
2019-01-16T05:39:52.033Z,1.30
2019-01-16T05:42:57.226Z,1.30
2019-01-16T05:45:47.161Z,1.30
2019-01-16T05:48:40.462Z,1.20
2019-01-16T05:51:30.150Z,1.20
2019-01-16T05:54:23.804Z,1.20
2019-01-16T05:57:13.457Z,1.20
2019-01-16T05:59:56.005Z,1.30
2019-01-16T06:02:56.140Z,1.40
2019-01-16T06:06:02.291Z,1.40
2019-01-16T06:08:55.835Z,1.30
2019-01-16T06:11:58.890Z,1.40
2019-01-16T06:14:54.873Z,1.40
2019-01-16T06:17:45.434Z,1.30
2019-01-16T06:20:47.804Z,1.20
2019-01-16T06:23:50.213Z,1.20
2019-01-16T06:26:43.212Z,1.20
2019-01-16T06:29:32.873Z,1.30
2019-01-16T06:32:23.035Z,1.60
2019-01-16T06:35:19.034Z,2.00
2019-01-16T06:38:06.556Z,2.10
2019-01-16T06:40:55.594Z,2.20
2019-01-16T06:43:45.377Z,2.50
2019-01-16T06:46:55.676Z,2.70
2019-01-16T06:49:39.339Z,2.90
2019-01-16T06:52:38.600Z,3.00
2019-01-16T06:55:27.409Z,3.50
2019-01-16T06:58:15.134Z,3.40
2019-01-16T07:01:14.538Z,3.50
2019-01-16T07:04:09.948Z,3.50
2019-01-16T07:06:53.136Z,3.60
2019-01-16T07:09:43.320Z,3.90
2019-01-16T07:12:32.308Z,4.10
2019-01-16T07:15:25.568Z,4.00
2019-01-16T07:18:27.782Z,4.00
2019-01-16T07:21:18.565Z,4.30
2019-01-16T07:24:00.465Z,4.70
2019-01-16T07:27:05.857Z,5.20
2019-01-16T07:29:52.105Z,5.50
2019-01-16T07:32:40.778Z,5.50
2019-01-16T07:35:34.106Z,6.10
2019-01-16T07:38:24.046Z,6.20
2019-01-16T07:41:30.107Z,6.40
2019-01-16T07:44:26.354Z,6.30
2019-01-16T07:47:15.128Z,6.60
2019-01-16T07:50:17.132Z,7.10
2019-01-16T07:53:03.173Z,7.10
2019-01-16T07:55:56.209Z,8.10
2019-01-16T07:58:55.261Z,8.70
2019-01-16T08:01:45.453Z,8.40
2019-01-16T08:04:34.247Z,8.80
2019-01-16T08:07:27.317Z,8.60
2019-01-16T08:10:28.271Z,9.00
2019-01-16T08:13:17.286Z,9.20
2019-01-16T08:16:07.436Z,8.90
2019-01-16T08:18:55.955Z,8.60
2019-01-16T08:21:52.123Z,8.70
2019-01-16T08:24:58.186Z,8.50
2019-01-16T08:27:48.465Z,8.70
2019-01-16T08:30:37.067Z,8.40
2019-01-16T08:33:33.169Z,8.70
2019-01-16T08:36:42.174Z,8.90
2019-01-16T08:39:38.662Z,8.80
2019-01-16T08:42:27.656Z,8.40
2019-01-16T08:45:17.845Z,8.90
2019-01-16T08:48:20.258Z,9.20
2019-01-16T08:51:09.806Z,9.20
2019-01-16T08:54:04.571Z,9.10
2019-01-16T08:56:59.727Z,9.00
2019-01-16T08:59:56.183Z,8.60
2019-01-16T09:02:46.727Z,8.50
2019-01-16T09:05:39.727Z,8.80
2019-01-16T09:08:45.135Z,8.70
2019-01-16T09:11:33.938Z,8.80
2019-01-16T09:14:33.596Z,8.60
2019-01-16T09:17:42.403Z,8.00
2019-01-16T09:20:40.142Z,7.40
2019-01-16T09:23:25.567Z,7.10
2019-01-16T09:26:27.199Z,6.90
2019-01-16T09:29:15.969Z,7.20
2019-01-16T09:32:16.043Z,7.70
2019-01-16T09:35:04.694Z,8.20
2019-01-16T09:37:53.785Z,8.40
2019-01-16T09:40:52.882Z,8.60
2019-01-16T09:43:44.427Z,9.00
2019-01-16T09:46:41.193Z,7.70
2019-01-16T09:49:30.355Z,7.20
2019-01-16T09:52:21.324Z,6.90
2019-01-16T09:55:10.449Z,7.10
2019-01-16T09:58:06.224Z,7.60
2019-01-16T10:00:54.752Z,8.00
2019-01-16T10:03:53.960Z,8.20
2019-01-16T10:06:44.624Z,7.70
2019-01-16T10:09:33.630Z,7.60
2019-01-16T10:12:22.611Z,7.50
2019-01-16T10:15:11.781Z,6.80
2019-01-16T10:18:00.566Z,7.30
2019-01-16T10:20:55.577Z,7.80
2019-01-16T10:23:41.201Z,7.90
2019-01-16T10:26:46.752Z,8.30
2019-01-16T10:29:28.328Z,8.80
2019-01-16T10:32:34.683Z,8.70
2019-01-16T10:35:24.443Z,8.40
2019-01-16T10:38:23.168Z,8.50
2019-01-16T10:41:03.448Z,8.30
2019-01-16T10:43:57.454Z,8.60
2019-01-16T10:46:53.622Z,8.80
2019-01-16T10:49:35.943Z,9.00
2019-01-16T10:52:28.666Z,8.50
2019-01-16T10:55:10.785Z,8.60
2019-01-16T10:58:01.890Z,8.30
2019-01-16T11:00:49.506Z,8.10
2019-01-16T11:03:39.562Z,8.20
2019-01-16T11:06:55.411Z,7.80
2019-01-16T11:09:48.432Z,7.70
2019-01-16T11:12:44.938Z,7.80
2019-01-16T11:15:50.218Z,7.70
2019-01-16T11:18:39.368Z,7.30
2019-01-16T11:21:28.265Z,7.30
2019-01-16T11:24:24.322Z,6.90
2019-01-16T11:27:05.924Z,7.10
2019-01-16T11:30:11.883Z,7.00
2019-01-16T11:32:57.273Z,6.90
2019-01-16T11:35:43.651Z,6.80
2019-01-16T11:38:32.508Z,6.60
2019-01-16T11:41:25.663Z,6.40
2019-01-16T11:44:25.045Z,6.40
2019-01-16T11:47:33.396Z,6.40
2019-01-16T11:50:26.569Z,6.40
2019-01-16T11:53:16.302Z,6.50
2019-01-16T11:56:18.665Z,6.50
2019-01-16T11:59:26.170Z,6.50
2019-01-16T12:02:22.110Z,6.60
2019-01-16T12:05:14.926Z,6.60
2019-01-16T12:08:11.315Z,6.70
2019-01-16T12:11:00.197Z,6.40
2019-01-16T12:13:49.263Z,6.40
2019-01-16T12:16:51.395Z,6.30
2019-01-16T12:19:47.710Z,6.20
2019-01-16T12:22:40.598Z,6.00
2019-01-16T12:25:33.599Z,6.20
2019-01-16T12:28:27.657Z,6.20
2019-01-16T12:31:13.099Z,6.10
2019-01-16T12:34:12.363Z,6.20
2019-01-16T12:40:32.962Z,6.00
2019-01-16T12:43:21.833Z,6.10
2019-01-16T12:46:17.903Z,6.10
2019-01-16T12:49:13.797Z,6.10
2019-01-16T12:52:09.704Z,6.00
2019-01-16T12:55:00.480Z,5.90
2019-01-16T12:57:42.242Z,5.90
2019-01-16T13:00:32.500Z,6.00
2019-01-16T13:03:21.411Z,5.90
2019-01-16T13:06:08.978Z,6.00
2019-01-16T13:09:06.931Z,5.90
2019-01-16T13:12:00.227Z,6.00
2019-01-16T13:15:00.895Z,5.90
2019-01-16T13:17:54.702Z,5.90
2019-01-16T13:20:43.443Z,5.90
2019-01-16T13:23:36.507Z,5.80
2019-01-16T13:26:24.754Z,5.80
2019-01-16T13:32:11.149Z,5.80
2019-01-16T13:35:05.899Z,5.80
2019-01-16T13:38:05.571Z,5.80
2019-01-16T13:40:55.378Z,5.70
2019-01-16T13:43:37.304Z,5.70
2019-01-16T13:46:26.309Z,5.60
2019-01-16T13:49:15.421Z,5.40
2019-01-16T13:52:08.484Z,5.30
2019-01-16T13:55:14.059Z,5.20
2019-01-16T13:58:03.039Z,5.10
2019-01-16T14:00:54.452Z,5.10
2019-01-16T14:03:44.824Z,5.00
2019-01-16T14:06:34.122Z,4.90
2019-01-16T14:09:27.681Z,4.90
2019-01-16T14:12:17.819Z,4.80
2019-01-16T14:15:07.513Z,4.80
2019-01-16T14:17:50.162Z,4.80
2019-01-16T14:20:50.801Z,4.80
2019-01-16T14:23:52.828Z,4.80
2019-01-16T14:26:52.033Z,4.70
2019-01-16T14:29:41.205Z,4.70
2019-01-16T14:32:29.712Z,4.70
2019-01-16T14:35:22.142Z,4.70
2019-01-16T14:38:12.026Z,4.60
2019-01-16T14:41:14.664Z,4.60
2019-01-16T14:44:22.088Z,4.50
2019-01-16T14:47:11.207Z,4.50
2019-01-16T14:50:10.299Z,4.50
2019-01-16T14:52:52.587Z,4.50
2019-01-16T14:55:57.938Z,4.50
2019-01-16T14:58:48.348Z,4.50
2019-01-16T15:01:53.819Z,4.40
2019-01-16T15:04:52.905Z,4.40
2019-01-16T15:07:48.920Z,4.40
2019-01-16T15:10:37.320Z,4.40
2019-01-16T15:13:22.979Z,4.30
2019-01-16T15:16:28.154Z,4.30
2019-01-16T15:19:18.139Z,4.30
2019-01-16T15:22:07.364Z,4.30
2019-01-16T15:25:00.328Z,4.30
2019-01-16T15:27:44.656Z,4.30
2019-01-16T15:30:28.461Z,4.30
2019-01-16T15:33:21.944Z,4.30
2019-01-16T15:36:11.067Z,4.30
2019-01-16T15:39:05.617Z,4.30
2019-01-16T15:42:02.007Z,4.30
2019-01-16T15:45:07.366Z,4.20
2019-01-16T15:47:56.190Z,4.20
2019-01-16T15:50:46.421Z,4.20
2019-01-16T15:53:27.193Z,4.20
2019-01-16T15:56:18.617Z,4.20
2019-01-16T15:59:17.638Z,4.20
2019-01-16T16:02:07.973Z,4.20
2019-01-16T16:05:01.691Z,4.20
2019-01-16T16:07:48.804Z,4.20
2019-01-16T16:10:45.241Z,4.20
2019-01-16T16:13:44.638Z,4.20
2019-01-16T16:16:43.846Z,4.20
2019-01-16T16:19:32.406Z,4.20
2019-01-16T16:22:19.621Z,4.20
2019-01-16T16:25:15.268Z,4.20
2019-01-16T16:28:01.632Z,4.20
2019-01-16T16:30:50.693Z,4.20
2019-01-16T16:33:46.192Z,4.20
2019-01-16T16:36:39.434Z,4.10
2019-01-16T16:39:28.867Z,4.10
2019-01-16T16:42:25.193Z,4.10
2019-01-16T16:45:28.961Z,4.10
2019-01-16T16:48:19.694Z,4.00
2019-01-16T16:51:09.877Z,4.00
2019-01-16T16:53:58.412Z,4.00
2019-01-16T16:56:47.390Z,4.00
2019-01-16T16:59:36.899Z,4.00
2019-01-16T17:02:26.848Z,4.00
2019-01-16T17:05:15.971Z,4.00
2019-01-16T17:07:55.175Z,3.90
2019-01-16T17:10:48.628Z,4.00
2019-01-16T17:13:49.179Z,4.00
2019-01-16T17:16:48.688Z,4.00
2019-01-16T17:19:37.537Z,4.00
2019-01-16T17:22:32.244Z,4.00
2019-01-16T17:25:22.250Z,4.00
2019-01-16T17:28:11.369Z,4.10
2019-01-16T17:31:01.487Z,4.10
2019-01-16T17:33:51.640Z,4.10
2019-01-16T17:36:47.454Z,4.10
2019-01-16T17:39:36.329Z,4.10
2019-01-16T17:42:32.504Z,4.10
2019-01-16T17:45:44.205Z,4.10
2019-01-16T17:48:53.457Z,4.10
2019-01-16T17:51:42.505Z,4.00
2019-01-16T17:54:31.404Z,4.00
2019-01-16T17:57:17.526Z,4.00
2019-01-16T18:00:10.857Z,4.00
2019-01-16T18:03:04.260Z,4.00
2019-01-16T18:06:07.182Z,4.00
2019-01-16T18:08:59.964Z,4.00
2019-01-16T18:12:07.641Z,4.10
2019-01-16T18:15:10.181Z,4.00
2019-01-16T18:17:59.611Z,4.00
2019-01-16T18:20:55.654Z,4.00
2019-01-16T18:23:44.683Z,4.00
2019-01-16T18:26:46.904Z,4.00
2019-01-16T18:29:40.721Z,4.00
2019-01-16T18:32:37.351Z,4.10
2019-01-16T18:35:30.702Z,4.10
2019-01-16T18:38:26.703Z,4.10
2019-01-16T18:41:15.539Z,4.10
2019-01-16T18:44:05.497Z,4.20
2019-01-16T18:46:55.022Z,4.20
2019-01-16T18:50:09.945Z,4.20
2019-01-16T18:52:59.030Z,4.50
2019-01-16T18:55:44.019Z,4.50
2019-01-16T18:58:52.655Z,4.30
2019-01-16T19:01:33.697Z,4.20
2019-01-16T19:04:23.865Z,4.20
2019-01-16T19:07:13.957Z,4.60
2019-01-16T19:10:17.253Z,4.70
2019-01-16T19:13:10.380Z,4.50
2019-01-16T19:16:03.590Z,4.40
2019-01-16T19:18:47.074Z,4.30
2019-01-16T19:21:46.741Z,4.30
2019-01-16T19:24:26.647Z,4.30
2019-01-16T19:27:35.907Z,4.30
2019-01-16T19:30:44.193Z,4.40
2019-01-16T19:33:33.339Z,4.40
2019-01-16T19:36:23.349Z,4.30
2019-01-16T19:39:12.548Z,4.20
2019-01-16T19:42:02.891Z,4.20
2019-01-16T19:44:53.332Z,4.20
2019-01-16T19:47:49.541Z,4.20
2019-01-16T19:50:42.854Z,4.20
2019-01-16T19:53:39.455Z,4.20
2019-01-16T19:56:42.324Z,4.20
2019-01-16T19:59:31.464Z,4.30
2019-01-16T20:02:33.865Z,4.30
2019-01-16T20:05:20.643Z,4.30
2019-01-16T20:08:17.662Z,4.40
2019-01-16T20:11:01.985Z,4.40
2019-01-16T20:13:52.370Z,4.20
2019-01-16T20:16:41.182Z,4.20
2019-01-16T20:19:30.457Z,4.20
2019-01-16T20:22:23.668Z,4.30
2019-01-16T20:25:13.943Z,4.20
2019-01-16T20:28:04.143Z,4.10
2019-01-16T20:30:57.661Z,4.00
2019-01-16T20:33:54.430Z,3.80
2019-01-16T20:36:44.806Z,3.50
2019-01-16T20:39:41.186Z,3.40
2019-01-16T20:42:43.611Z,3.20
2019-01-16T20:45:29.888Z,3.20
2019-01-16T20:48:34.992Z,3.20
2019-01-16T20:51:31.313Z,3.10
2019-01-16T20:54:21.418Z,3.00
2019-01-16T20:57:15.253Z,2.90
2019-01-16T21:00:05.505Z,2.90
2019-01-16T21:02:59.876Z,2.90
2019-01-16T21:05:48.887Z,3.00
2019-01-16T21:08:32.128Z,3.00
2019-01-16T21:11:34.801Z,3.10
2019-01-16T21:14:27.482Z,3.00
2019-01-16T21:17:16.582Z,2.90
2019-01-16T21:20:16.302Z,2.90
2019-01-16T21:23:24.948Z,2.90
2019-01-16T21:26:16.340Z,2.90
2019-01-16T21:29:15.860Z,2.90
2019-01-16T21:31:59.821Z,2.80
2019-01-16T21:34:50.095Z,2.70
2019-01-16T21:37:40.325Z,2.60
2019-01-16T21:40:32.902Z,2.50
2019-01-16T21:43:22.965Z,2.50
2019-01-16T21:46:21.512Z,2.60
2019-01-16T21:49:10.864Z,2.50
2019-01-16T21:51:52.082Z,2.50
2019-01-16T21:54:51.424Z,2.50
2019-01-16T21:57:48.335Z,2.30
2019-01-16T22:00:35.090Z,2.30
2019-01-16T22:03:15.292Z,2.10
2019-01-16T22:06:17.531Z,2.00
2019-01-16T22:09:20.059Z,2.00
2019-01-16T22:12:12.208Z,2.00
2019-01-16T22:15:07.999Z,1.90
2019-01-16T22:17:58.038Z,2.00
2019-01-16T22:21:22.864Z,2.20
2019-01-16T22:24:13.234Z,2.00
2019-01-16T22:26:55.675Z,2.00
2019-01-16T22:29:50.392Z,2.00
2019-01-16T22:32:45.167Z,1.90
2019-01-16T22:35:34.156Z,1.90
2019-01-16T22:38:24.937Z,1.80
2019-01-16T22:41:15.151Z,1.60
2019-01-16T22:43:54.616Z,1.60
2019-01-16T22:46:33.102Z,1.40
2019-01-16T22:49:19.026Z,1.40
2019-01-16T22:52:14.209Z,1.20
2019-01-16T22:55:02.301Z,1.10
2019-01-16T22:57:42.875Z,1.10
2019-01-16T23:00:40.271Z,1.00
2019-01-16T23:03:47.205Z,1.00
2019-01-16T23:06:46.659Z,1.00
2019-01-16T23:09:45.422Z,0.90
2019-01-16T23:12:36.038Z,0.90
2019-01-16T23:15:43.576Z,0.80
2019-01-16T23:18:38.477Z,0.80
2019-01-16T23:21:37.862Z,0.80
2019-01-16T23:24:31.762Z,0.90
2019-01-16T23:27:26.452Z,1.00
2019-01-16T23:30:23.044Z,1.00
2019-01-16T23:33:13.408Z,1.00
2019-01-16T23:36:15.964Z,1.00
2019-01-16T23:39:18.527Z,1.00
2019-01-16T23:42:07.315Z,1.00
2019-01-16T23:44:57.213Z,1.00
2019-01-16T23:47:50.321Z,1.00
2019-01-16T23:50:36.160Z,0.90
2019-01-16T23:53:28.974Z,0.90
2019-01-16T23:56:17.999Z,0.90
2019-01-16T23:59:08.061Z,0.70
